Time;durP1;ratioP1;P1;durP2;ratioP2;P2;SDS_P1;SDS_P2;PMS_P1;PMS_P2;Temp;Humidity;BMP_temperature;BMP_pressure;BME280_temperature;BME280_humidity;BME280_pressure;Samples;Min_cycle;Max_cycle;Signal;HPM_P1;HPM_P2
2023/07/27 00:01:54;;;;;;;;;2.00;2.00;;;;;11.90;100.00;97966.00;4980299;28;101510;-74
2023/07/27 00:04:31;;;;;;;;;3.00;3.00;;;;;11.82;100.00;97954.63;4989144;28;101917;-74
2023/07/27 00:07:22;;;;;;;;;2.75;2.00;;;;;11.79;100.00;97958.63;4983612;28;107743;-74
2023/07/27 00:10:25;;;;;;;;;1.25;1.25;;;;;11.67;100.00;97943.28;4978457;27;101904;-75
2023/07/27 00:13:12;;;;;;;;;1.00;1.00;;;;;11.75;100.00;97962.00;4979060;28;101698;-74
2023/07/27 00:15:55;;;;;;;;;1.00;1.00;;;;;11.71;100.00;97971.63;4983040;28;102053;-74
2023/07/27 00:18:27;;;;;;;;;0.00;0.00;;;;;11.66;100.00;97961.44;4982564;28;107403;-74
2023/07/27 00:20:59;;;;;;;;;1.75;1.75;;;;;11.56;100.00;97955.72;4980364;28;101619;-74
2023/07/27 00:23:29;;;;;;;;;3.00;3.00;;;;;11.57;100.00;97962.78;4981678;28;101860;-75
2023/07/27 00:25:56;;;;;;;;;2.00;2.00;;;;;11.43;100.00;97940.44;4958064;28;102947;-75
2023/07/27 00:28:23;;;;;;;;;2.00;1.25;;;;;11.46;100.00;97945.38;4982459;28;103565;-74
2023/07/27 00:30:53;;;;;;;;;2.00;0.00;;;;;11.46;100.00;97952.66;4982714;28;101898;-74
2023/07/27 00:33:20;;;;;;;;;2.00;2.00;;;;;11.35;100.00;97950.69;4978445;28;101760;-73
2023/07/27 00:35:55;;;;;;;;;2.00;2.00;;;;;11.19;100.00;97971.84;4982056;28;101865;-75
2023/07/27 00:38:22;;;;;;;;;5.00;4.00;;;;;11.15;100.00;97977.91;4981165;28;107939;-74
2023/07/27 00:40:49;;;;;;;;;2.75;2.75;;;;;11.12;100.00;97978.38;4979489;28;101986;-75
2023/07/27 00:43:16;;;;;;;;;3.00;3.00;;;;;10.95;100.00;97967.22;4975560;28;101949;-75
2023/07/27 00:45:45;;;;;;;;;2.00;2.00;;;;;10.90;100.00;97967.06;4981800;28;101845;-73
2023/07/27 00:48:13;;;;;;;;;3.25;3.00;;;;;10.89;100.00;97978.13;4982602;28;103692;-74
2023/07/27 00:50:40;;;;;;;;;2.00;2.00;;;;;10.71;100.00;97947.25;4982636;28;102006;-73
2023/07/27 00:53:09;;;;;;;;;3.50;2.75;;;;;10.72;100.00;97962.38;4979010;28;101909;-73
2023/07/27 00:55:36;;;;;;;;;1.25;1.25;;;;;10.89;100.00;97994.34;4984404;28;101816;-74
2023/07/27 00:58:04;;;;;;;;;2.00;2.00;;;;;10.74;100.00;97981.94;4979611;28;103109;-74
2023/07/27 01:00:31;;;;;;;;;2.00;2.00;;;;;10.50;100.00;97963.78;4980687;28;101979;-74
2023/07/27 01:03:00;;;;;;;;;2.25;2.25;;;;;10.41;100.00;97966.94;4981351;28;101812;-73
2023/07/27 01:05:35;;;;;;;;;2.50;2.50;;;;;10.46;100.00;97984.16;4982303;28;101895;-74
2023/07/27 01:08:28;;;;;;;;;2.00;2.00;;;;;10.54;100.00;98008.25;4978382;28;108018;-74
2023/07/27 01:11:34;;;;;;;;;2.50;2.50;;;;;10.53;100.00;98003.06;4981124;28;101659;-74
2023/07/27 01:15:17;;;;;;;;;2.00;2.00;;;;;10.37;100.00;97995.44;4980938;28;101691;-74
2023/07/27 01:18:18;;;;;;;;;3.00;2.00;;;;;10.40;100.00;98012.03;4990773;28;102025;-75
2023/07/27 01:21:25;;;;;;;;;3.00;2.00;;;;;10.39;100.00;98020.38;4979082;28;108581;-75
2023/07/27 01:24:23;;;;;;;;;1.00;0.00;;;;;10.29;100.00;98004.63;4979550;28;102071;-76
2023/07/27 01:27:30;;;;;;;;;1.50;1.00;;;;;10.24;100.00;98012.53;4980922;28;101776;-74
2023/07/27 01:30:50;;;;;;;;;2.00;2.00;;;;;10.27;100.00;98026.44;4975686;28;103401;-75
2023/07/27 01:33:31;;;;;;;;;0.75;0.75;;;;;10.12;100.00;98004.25;4906163;28;108855;-74
2023/07/27 01:36:09;;;;;;;;;1.00;1.00;;;;;9.85;100.00;97960.28;4917060;28;102089;-74
2023/07/27 01:38:41;;;;;;;;;2.25;2.25;;;;;10.09;100.00;98001.13;4972401;28;102026;-74
2023/07/27 01:41:10;;;;;;;;;10.00;9.00;;;;;10.16;100.00;98018.19;4983519;28;101823;-74
2023/07/27 01:43:40;;;;;;;;;5.00;4.50;;;;;9.88;100.00;98004.09;4980495;28;103106;-73
2023/07/27 01:46:07;;;;;;;;;3.25;3.00;;;;;9.76;100.00;97993.94;4982457;28;101896;-74
2023/07/27 01:48:38;;;;;;;;;4.25;3.50;;;;;9.60;100.00;97948.50;4986805;28;101801;-74
2023/07/27 01:51:08;;;;;;;;;4.00;3.00;;;;;9.83;100.00;98002.03;4984050;28;101857;-74
2023/07/27 01:53:37;;;;;;;;;1.75;1.75;;;;;9.76;100.00;97985.84;4983353;28;104636;-73
2023/07/27 01:56:06;;;;;;;;;1.25;1.25;;;;;9.91;100.00;98011.75;4985713;28;102270;-72
2023/07/27 01:58:39;;;;;;;;;3.00;2.00;;;;;9.89;100.00;98008.44;4985282;28;101891;-74
2023/07/27 02:01:07;;;;;;;;;3.25;3.00;;;;;9.72;100.00;97992.72;4984037;28;102132;-74
2023/07/27 02:03:35;;;;;;;;;6.75;6.75;;;;;9.79;100.00;98023.22;4984643;28;103415;-74
2023/07/27 02:06:03;;;;;;;;;7.00;6.00;;;;;9.70;100.00;98013.69;4984350;28;101838;-74
2023/07/27 02:08:30;;;;;;;;;4.00;4.00;;;;;9.85;100.00;98040.44;4984308;28;101870;-75
2023/07/27 02:11:04;;;;;;;;;3.00;3.00;;;;;9.89;100.00;98035.44;4989895;28;101711;-75
2023/07/27 02:13:54;;;;;;;;;1.00;1.00;;;;;9.86;100.00;98034.81;4980022;28;107932;-74
2023/07/27 02:16:53;;;;;;;;;2.00;2.00;;;;;9.84;100.00;98028.81;4982829;28;101885;-74
2023/07/27 02:19:26;;;;;;;;;1.25;1.25;;;;;9.72;100.00;98013.47;4979483;28;101598;-75
2023/07/27 02:21:55;;;;;;;;;2.00;2.00;;;;;9.44;100.00;97984.03;4984642;28;101565;-74
2023/07/27 02:24:24;;;;;;;;;2.25;2.25;;;;;9.76;100.00;98029.03;4985258;28;108069;-74
2023/07/27 02:26:51;;;;;;;;;3.00;3.00;;;;;9.77;100.00;98038.78;4984189;28;101834;-75
2023/07/27 02:29:18;;;;;;;;;2.00;1.00;;;;;9.68;100.00;98029.22;4980353;28;102114;-75
2023/07/27 02:31:45;;;;;;;;;1.75;1.00;;;;;9.63;100.00;98034.47;4984904;28;101665;-75
2023/07/27 02:34:13;;;;;;;;;1.50;1.00;;;;;9.61;100.00;98014.94;4998170;28;103344;-74
2023/07/27 02:36:42;;;;;;;;;2.00;2.00;;;;;9.69;100.00;98030.06;4981650;28;101563;-74
2023/07/27 02:39:09;;;;;;;;;1.00;1.00;;;;;9.76;100.00;98047.94;4983002;28;101733;-74
2023/07/27 02:41:36;;;;;;;;;2.00;2.00;;;;;9.64;100.00;98032.56;4982008;28;102768;-75
2023/07/27 02:44:03;;;;;;;;;2.50;2.50;;;;;9.63;100.00;98025.53;4986001;28;103707;-75
2023/07/27 02:46:30;;;;;;;;;1.00;1.00;;;;;9.63;100.00;98039.84;4982782;28;101817;-75
2023/07/27 02:48:58;;;;;;;;;2.00;2.00;;;;;9.42;100.00;98002.28;4986274;28;101668;-75
2023/07/27 02:51:25;;;;;;;;;1.00;1.00;;;;;9.73;100.00;98055.59;4984442;28;101755;-74
2023/07/27 02:53:52;;;;;;;;;1.25;1.25;;;;;9.56;100.00;98033.63;4983895;28;102310;-75
2023/07/27 02:56:19;;;;;;;;;1.00;1.00;;;;;9.76;100.00;98066.84;4984771;28;101865;-75
2023/07/27 02:58:46;;;;;;;;;1.00;0.00;;;;;9.74;100.00;98071.59;4981597;28;101880;-75
2023/07/27 03:01:14;;;;;;;;;2.25;1.75;;;;;9.40;100.00;98005.19;4984742;28;101816;-74
2023/07/27 03:03:41;;;;;;;;;2.50;2.00;;;;;9.67;100.00;98045.66;4982581;28;103348;-74
2023/07/27 03:06:08;;;;;;;;;1.00;1.00;;;;;9.56;100.00;98030.09;4980692;28;102298;-74
2023/07/27 03:08:35;;;;;;;;;2.50;1.00;;;;;9.73;100.00;98078.03;4978113;28;101552;-74
2023/07/27 03:11:04;;;;;;;;;2.50;2.50;;;;;9.69;100.00;98074.09;4977399;28;101594;-75
2023/07/27 03:13:32;;;;;;;;;3.00;3.00;;;;;9.68;100.00;98077.81;4979231;28;102847;-75
2023/07/27 03:16:02;;;;;;;;;3.50;3.00;;;;;9.58;100.00;98055.84;4981736;28;101797;-75
2023/07/27 03:18:29;;;;;;;;;2.00;2.00;;;;;9.57;100.00;98059.56;4981119;28;101499;-74
2023/07/27 03:20:56;;;;;;;;;1.25;1.00;;;;;9.57;100.00;98064.97;4985690;28;101842;-74
2023/07/27 03:23:24;;;;;;;;;1.75;1.00;;;;;9.64;100.00;98078.44;4979156;28;108168;-74
2023/07/27 03:25:51;;;;;;;;;2.00;2.00;;;;;9.63;100.00;98083.03;4985381;28;101920;-74
2023/07/27 03:28:18;;;;;;;;;1.25;1.25;;;;;9.61;100.00;98073.47;4977392;28;102595;-74
2023/07/27 03:30:45;;;;;;;;;1.00;1.00;;;;;9.24;100.00;98026.34;4981893;28;102646;-74
2023/07/27 03:33:12;;;;;;;;;2.00;1.25;;;;;9.52;100.00;98072.84;4977237;28;102729;-74
2023/07/27 03:35:39;;;;;;;;;2.00;1.00;;;;;9.41;100.00;98057.31;4979317;28;101923;-75
2023/07/27 03:38:07;;;;;;;;;1.00;1.00;;;;;9.39;100.00;98059.34;4981384;28;101873;-75
2023/07/27 03:40:36;;;;;;;;;2.00;1.75;;;;;9.22;100.00;98029.28;4982326;28;101706;-75
2023/07/27 03:43:03;;;;;;;;;2.00;2.00;;;;;9.41;100.00;98060.81;4984983;28;103658;-75
2023/07/27 03:45:30;;;;;;;;;2.00;2.00;;;;;9.41;100.00;98054.59;4979581;28;101991;-75
2023/07/27 03:47:57;;;;;;;;;1.50;1.50;;;;;9.36;100.00;98059.78;4983505;28;101868;-75
2023/07/27 03:50:24;;;;;;;;;3.00;2.00;;;;;9.14;100.00;98015.97;4977414;28;101907;-75
2023/07/27 03:52:52;;;;;;;;;2.00;2.00;;;;;9.53;100.00;98071.81;4981668;28;103375;-75
2023/07/27 03:55:19;;;;;;;;;1.00;1.00;;;;;9.57;100.00;98070.38;4982246;28;103026;-74
2023/07/27 03:57:50;;;;;;;;;2.25;2.25;;;;;9.58;100.00;98074.75;4980576;28;101724;-75
2023/07/27 04:00:19;;;;;;;;;1.50;1.00;;;;;9.60;100.00;98064.53;4974309;28;102106;-74
2023/07/27 04:02:46;;;;;;;;;0.00;0.00;;;;;9.70;100.00;98083.88;4979961;28;102157;-74
2023/07/27 04:05:13;;;;;;;;;1.75;1.75;;;;;9.78;100.00;98089.03;4972896;28;101939;-74
2023/07/27 04:07:40;;;;;;;;;1.50;1.00;;;;;9.76;100.00;98083.03;4980257;28;101479;-74
2023/07/27 04:10:08;;;;;;;;;1.00;1.00;;;;;9.69;100.00;98063.31;4983948;28;101643;-75
2023/07/27 04:12:35;;;;;;;;;3.00;2.50;;;;;9.93;100.00;98088.00;4980795;28;104612;-74
2023/07/27 04:15:05;;;;;;;;;1.50;1.50;;;;;9.80;100.00;98072.66;4980754;28;101665;-74
2023/07/27 04:17:32;;;;;;;;;1.00;1.00;;;;;9.99;100.00;98089.88;4977279;28;101923;-74
2023/07/27 04:19:59;;;;;;;;;2.00;1.00;;;;;10.06;100.00;98090.69;4980695;28;102104;-75
2023/07/27 04:22:26;;;;;;;;;2.00;2.00;;;;;10.11;100.00;98099.00;4985397;28;102173;-76
2023/07/27 04:24:54;;;;;;;;;2.00;1.00;;;;;10.11;100.00;98101.69;4978891;28;102012;-75
2023/07/27 04:27:21;;;;;;;;;2.00;2.00;;;;;9.91;100.00;98060.34;4957858;28;101724;-74
2023/07/27 04:29:48;;;;;;;;;2.00;2.00;;;;;10.19;100.00;98096.09;4984055;28;102025;-75
2023/07/27 04:32:15;;;;;;;;;2.00;2.00;;;;;10.15;100.00;98082.19;4983352;28;103314;-74
2023/07/27 04:34:43;;;;;;;;;2.25;1.00;;;;;10.10;100.00;98056.81;4978582;28;101641;-75
2023/07/27 04:37:10;;;;;;;;;1.75;1.00;;;;;9.87;100.00;98005.94;4978029;28;102236;-75
2023/07/27 04:39:37;;;;;;;;;1.50;1.50;;;;;10.48;100.00;98098.31;4983878;28;101772;-75
2023/07/27 04:42:05;;;;;;;;;0.25;0.25;;;;;10.63;100.00;98108.84;4979692;28;103500;-75
2023/07/27 04:44:32;;;;;;;;;2.00;1.00;;;;;10.16;100.00;98015.47;4980754;28;101706;-75
2023/07/27 04:46:59;;;;;;;;;2.00;2.00;;;;;10.83;100.00;98100.69;4985186;28;102469;-75
2023/07/27 04:49:26;;;;;;;;;3.75;3.00;;;;;10.93;100.00;98084.81;4980758;28;101639;-75
2023/07/27 04:51:53;;;;;;;;;2.25;2.25;;;;;11.33;100.00;98110.59;4983216;28;104298;-75
2023/07/27 04:54:21;;;;;;;;;2.50;2.50;;;;;11.23;100.00;98061.53;4980079;28;101638;-75
2023/07/27 04:56:48;;;;;;;;;3.75;1.75;;;;;11.36;100.00;98066.03;4983846;28;102104;-75
2023/07/27 04:59:15;;;;;;;;;3.50;3.25;;;;;11.74;100.00;98102.03;4981696;28;101628;-75
2023/07/27 05:01:42;;;;;;;;;2.00;2.00;;;;;11.63;100.00;98071.03;4981766;28;103697;-75
2023/07/27 05:04:09;;;;;;;;;2.50;2.00;;;;;11.96;100.00;98089.75;4976070;28;101757;-74
2023/07/27 05:06:39;;;;;;;;;4.00;2.00;;;;;12.11;100.00;98081.28;4982540;28;102014;-74
2023/07/27 05:09:07;;;;;;;;;2.25;2.25;;;;;12.51;100.00;98109.63;4988719;28;101500;-74
2023/07/27 05:11:36;;;;;;;;;2.50;2.50;;;;;12.45;100.00;98069.84;4980981;28;103454;-75
2023/07/27 05:14:03;;;;;;;;;3.00;1.75;;;;;12.81;100.00;98087.16;4987340;28;101849;-75
2023/07/27 05:16:30;;;;;;;;;4.50;4.00;;;;;13.25;100.00;98119.38;4984192;28;101939;-74
2023/07/27 05:18:58;;;;;;;;;3.50;3.50;;;;;13.42;100.00;98119.53;4990131;28;101605;-73
2023/07/27 05:21:25;;;;;;;;;4.00;3.50;;;;;13.66;100.00;98124.00;5001381;28;109412;-74
2023/07/27 05:23:52;;;;;;;;;3.00;3.00;;;;;13.84;99.04;98125.81;4982764;28;101827;-73
2023/07/27 05:26:19;;;;;;;;;4.00;3.75;;;;;13.88;98.12;98099.00;4985266;28;102620;-74
2023/07/27 05:28:46;;;;;;;;;5.25;4.50;;;;;14.07;96.80;98109.53;4988924;28;101876;-73
2023/07/27 05:31:13;;;;;;;;;5.50;4.50;;;;;14.14;96.61;98107.53;5000195;28;102864;-73
2023/07/27 05:33:41;;;;;;;;;5.00;4.00;;;;;14.39;95.55;98123.66;4983329;28;101683;-73
2023/07/27 05:36:08;;;;;;;;;3.50;3.50;;;;;14.39;95.01;98106.50;4985807;28;101709;-74
2023/07/27 05:38:35;;;;;;;;;3.75;3.75;;;;;14.56;94.27;98112.88;4986371;28;101870;-73
2023/07/27 05:41:02;;;;;;;;;5.25;4.75;;;;;14.81;95.53;98127.06;4996775;27;103155;-73
2023/07/27 05:43:29;;;;;;;;;3.75;3.75;;;;;14.77;92.61;98104.06;4986594;28;104388;-76
2023/07/27 05:45:56;;;;;;;;;7.50;7.00;;;;;15.24;96.19;98128.47;4988025;28;102957;-74
2023/07/27 05:48:24;;;;;;;;;4.50;4.50;;;;;15.35;93.50;98124.88;4985462;28;102013;-73
2023/07/27 05:50:53;;;;;;;;;3.00;3.00;;;;;15.63;90.38;98120.25;4981816;28;103498;-72
2023/07/27 05:53:21;;;;;;;;;4.00;4.00;;;;;15.66;89.32;98120.84;4998219;28;101801;-73
2023/07/27 05:55:48;;;;;;;;;4.00;3.25;;;;;15.67;87.26;98131.47;4982021;28;101654;-74
2023/07/27 05:58:15;;;;;;;;;4.50;4.00;;;;;15.79;88.89;98136.88;4988834;28;102415;-73
2023/07/27 06:00:59;;;;;;;;;5.00;5.00;;;;;15.68;87.53;98083.25;4984063;28;103607;-72
2023/07/27 06:03:30;;;;;;;;;5.00;4.00;;;;;15.94;86.90;98112.63;4983292;28;101892;-73
2023/07/27 06:05:58;;;;;;;;;3.00;3.00;;;;;16.20;87.17;98124.78;4985509;28;101571;-73
2023/07/27 06:08:25;;;;;;;;;3.00;3.00;;;;;16.29;84.34;98135.03;4987794;28;101856;-74
2023/07/27 06:11:04;;;;;;;;;6.50;6.00;;;;;16.39;87.92;98145.28;4987128;28;103551;-73
2023/07/27 06:13:32;;;;;;;;;5.00;4.67;;;;;16.55;83.93;98133.50;4978848;28;101845;-73
2023/07/27 06:16:00;;;;;;;;;5.00;4.00;;;;;16.53;82.88;98116.53;4987914;28;101834;-73
2023/07/27 06:18:27;;;;;;;;;4.67;4.33;;;;;16.70;84.21;98136.50;4979590;28;101835;-73
2023/07/27 06:20:54;;;;;;;;;5.33;5.00;;;;;16.70;83.50;98106.47;4978877;28;104915;-73
2023/07/27 06:23:21;;;;;;;;;3.33;3.33;;;;;16.88;84.86;98130.72;4987830;28;101871;-73
2023/07/27 06:25:49;;;;;;;;;4.00;3.00;;;;;16.95;83.21;98127.81;4987014;28;101727;-73
2023/07/27 06:28:16;;;;;;;;;3.00;3.00;;;;;17.14;84.45;98120.13;4985881;28;101902;-73
2023/07/27 06:30:45;;;;;;;;;4.00;3.00;;;;;17.09;80.97;98128.25;4985182;28;102890;-73
2023/07/27 06:33:14;;;;;;;;;3.00;2.67;;;;;17.22;82.24;98125.13;4984981;28;101569;-73
2023/07/27 06:35:41;;;;;;;;;2.00;2.00;;;;;17.14;80.46;98090.06;4980763;28;102523;-74
2023/07/27 06:38:08;;;;;;;;;2.67;2.00;;;;;17.12;80.26;98075.81;4983510;28;101953;-74
2023/07/27 06:40:36;;;;;;;;;3.00;1.33;;;;;17.45;78.39;98133.06;4984600;28;103480;-73
2023/07/27 06:43:03;;;;;;;;;2.00;2.00;;;;;17.39;82.06;98121.22;4984968;28;102252;-73
2023/07/27 06:45:30;;;;;;;;;2.67;2.00;;;;;17.47;77.94;98122.66;4998026;27;102171;-73
2023/07/27 06:47:57;;;;;;;;;2.00;2.00;;;;;17.56;80.81;98134.81;4989790;28;101954;-72
2023/07/27 06:50:25;;;;;;;;;0.00;0.00;;;;;17.48;76.87;98112.56;4983417;28;108944;-73
2023/07/27 06:52:52;;;;;;;;;2.67;2.67;;;;;17.59;76.54;98134.34;4985225;28;101909;-73
2023/07/27 06:55:19;;;;;;;;;3.00;2.00;;;;;17.56;75.40;98134.00;4982318;28;102124;-73
2023/07/27 06:57:46;;;;;;;;;2.00;2.00;;;;;17.57;77.09;98124.69;4985672;28;101607;-73
2023/07/27 07:00:14;;;;;;;;;3.00;2.00;;;;;17.71;77.53;98137.72;4982508;28;103362;-73
2023/07/27 07:02:41;;;;;;;;;2.33;1.67;;;;;17.71;77.60;98121.34;4985954;28;101915;-73
2023/07/27 07:05:08;;;;;;;;;2.00;2.00;;;;;17.68;76.58;98132.78;4983541;28;102539;-73
2023/07/27 07:07:35;;;;;;;;;5.00;4.67;;;;;17.80;76.02;98140.81;4985651;28;101653;-72
2023/07/27 07:10:03;;;;;;;;;3.00;2.00;;;;;17.52;77.29;98127.38;4982444;28;103170;-73
2023/07/27 07:12:30;;;;;;;;;1.67;1.67;;;;;17.89;76.41;98139.28;4982993;28;102001;-73
2023/07/27 07:14:57;;;;;;;;;4.00;3.00;;;;;17.71;73.97;98110.38;4984247;28;101631;-73
2023/07/27 07:17:24;;;;;;;;;3.33;3.00;;;;;17.84;76.08;98139.22;4987239;28;101889;-73
2023/07/27 07:19:51;;;;;;;;;2.33;2.00;;;;;17.69;75.42;98133.63;4997313;27;103047;-73
2023/07/27 07:22:18;;;;;;;;;2.33;2.33;;;;;17.57;74.02;98143.84;4982312;28;102224;-73
2023/07/27 07:24:45;;;;;;;;;2.00;2.00;;;;;17.40;71.37;98124.78;4984316;28;101898;-73
2023/07/27 07:27:12;;;;;;;;;2.67;1.00;;;;;17.54;72.62;98139.72;4998708;27;101607;-73
2023/07/27 07:29:40;;;;;;;;;1.00;1.00;;;;;17.70;70.92;98141.53;4982748;28;105009;-72
2023/07/27 07:32:07;;;;;;;;;1.33;1.00;;;;;17.55;71.00;98121.41;4985458;28;102773;-72
2023/07/27 07:34:35;;;;;;;;;2.00;0.33;;;;;17.48;69.17;98135.25;4983102;28;101544;-72
2023/07/27 07:37:02;;;;;;;;;2.00;2.00;;;;;17.32;70.59;98138.91;4982606;28;101977;-72
2023/07/27 07:39:29;;;;;;;;;1.00;1.00;;;;;17.54;70.93;98136.16;4986392;28;102393;-72
2023/07/27 07:41:56;;;;;;;;;3.00;2.00;;;;;17.06;73.34;98107.75;4980496;28;101787;-74
2023/07/27 07:44:23;;;;;;;;;2.67;1.67;;;;;17.23;74.60;98130.34;4996406;27;101917;-72
2023/07/27 07:46:50;;;;;;;;;3.00;2.00;;;;;17.27;69.53;98131.47;4985254;28;103143;-73
2023/07/27 07:49:18;;;;;;;;;1.00;1.00;;;;;17.39;68.31;98123.97;4983833;28;103802;-72
2023/07/27 07:51:45;;;;;;;;;1.00;1.00;;;;;17.48;71.23;98121.59;4985752;28;101716;-72
2023/07/27 07:54:12;;;;;;;;;1.00;1.00;;;;;17.69;70.46;98139.91;4983443;28;102077;-72
2023/07/27 07:56:39;;;;;;;;;2.00;2.00;;;;;17.80;68.29;98141.66;4982808;28;101761;-72
2023/07/27 07:59:06;;;;;;;;;1.00;1.00;;;;;17.75;67.37;98140.78;4981329;28;102615;-72
2023/07/27 08:01:33;;;;;;;;;2.00;1.00;;;;;17.92;66.88;98132.47;4985398;28;103363;-72
2023/07/27 08:04:00;;;;;;;;;2.00;2.00;;;;;17.78;67.93;98096.53;4984477;28;101973;-73
2023/07/27 08:06:27;;;;;;;;;1.00;1.00;;;;;18.10;70.93;98130.16;4984636;28;102522;-72
2023/07/27 08:08:54;;;;;;;;;2.00;2.00;;;;;17.74;65.81;98120.81;4982121;28;102724;-73
2023/07/27 08:11:22;;;;;;;;;2.00;2.00;;;;;17.60;66.20;98126.97;4983859;28;101867;-72
2023/07/27 08:13:49;;;;;;;;;1.00;1.00;;;;;17.83;68.22;98118.44;4983272;28;102721;-73
2023/07/27 08:16:16;;;;;;;;;1.00;1.00;;;;;18.03;65.73;98145.16;4986204;28;102061;-73
2023/07/27 08:18:44;;;;;;;;;1.00;1.00;;;;;17.60;68.45;98103.19;4981865;28;102877;-73
2023/07/27 08:21:11;;;;;;;;;2.00;2.00;;;;;18.06;71.28;98136.41;4983583;28;101995;-72
2023/07/27 08:23:38;;;;;;;;;2.00;2.00;;;;;18.24;63.32;98133.28;4982474;28;101967;-72
2023/07/27 08:26:09;;;;;;;;;2.00;1.33;;;;;18.22;63.43;98132.72;4984546;28;101956;-72
2023/07/27 08:28:36;;;;;;;;;2.00;2.00;;;;;18.31;63.06;98125.69;4982512;28;102657;-72
2023/07/27 08:31:03;;;;;;;;;2.00;2.00;;;;;18.17;65.48;98138.16;4985370;28;101577;-72
2023/07/27 08:33:34;;;;;;;;;2.00;2.00;;;;;18.03;65.91;98134.19;4983431;28;101907;-72
2023/07/27 08:36:02;;;;;;;;;2.00;1.00;;;;;18.31;66.85;98122.94;4984596;28;101807;-73
2023/07/27 08:38:29;;;;;;;;;1.67;1.00;;;;;18.03;68.77;98117.78;4986458;28;103291;-72
2023/07/27 08:40:57;;;;;;;;;1.00;0.67;;;;;18.30;70.12;98118.56;4985085;28;101568;-72
2023/07/27 08:43:25;;;;;;;;;2.00;2.00;;;;;18.25;62.40;98116.59;4989938;28;101694;-73
2023/07/27 08:45:53;;;;;;;;;2.00;2.00;;;;;18.29;62.59;98123.19;4989319;28;101579;-72
2023/07/27 08:48:23;;;;;;;;;1.67;1.67;;;;;18.39;66.20;98110.69;4986816;28;103678;-73
2023/07/27 08:50:52;;;;;;;;;1.33;1.00;;;;;18.47;66.40;98107.44;4988885;28;101657;-73
2023/07/27 08:53:19;;;;;;;;;1.00;1.00;;;;;18.50;64.71;98118.72;4991764;28;102026;-73
2023/07/27 08:55:46;;;;;;;;;2.00;2.00;;;;;18.43;63.13;98068.00;4987702;28;101605;-72
2023/07/27 08:58:14;;;;;;;;;1.00;0.00;;;;;18.87;63.24;98096.75;4990067;28;102930;-73
2023/07/27 09:00:41;;;;;;;;;2.00;1.67;;;;;19.06;63.87;98111.66;4965749;28;102211;-72
2023/07/27 09:03:09;;;;;;;;;1.00;1.00;;;;;18.96;64.14;98105.28;4989698;28;101605;-73
2023/07/27 09:05:57;;;;;;;;;1.00;1.00;;;;;18.84;62.49;98107.44;4964850;28;101983;-73
2023/07/27 09:08:28;;;;;;;;;2.00;2.00;;;;;18.83;61.29;98109.34;4984596;28;102831;-73
2023/07/27 09:11:10;;;;;;;;;3.00;3.00;;;;;18.73;61.78;98105.75;4988207;28;102023;-75
2023/07/27 09:13:38;;;;;;;;;2.00;2.00;;;;;18.67;62.54;98113.94;5007251;27;101789;-73
2023/07/27 09:16:09;;;;;;;;;2.00;2.00;;;;;18.88;62.37;98092.94;4996091;28;101745;-73
2023/07/27 09:18:37;;;;;;;;;3.00;1.67;;;;;19.25;63.26;98114.75;4985194;28;107366;-74
2023/07/27 09:21:09;;;;;;;;;1.67;1.67;;;;;19.45;60.30;98109.34;4988924;28;101937;-73
2023/07/27 09:23:38;;;;;;;;;2.00;2.00;;;;;19.39;60.35;98093.97;4764080;27;5001460;-71
2023/07/27 09:26:05;;;;;;;;;2.00;2.00;;;;;19.68;59.31;98091.56;4988195;28;101777;-72
2023/07/27 09:28:34;;;;;;;;;1.67;1.67;;;;;19.88;66.02;98096.25;4987805;28;107982;-72
2023/07/27 09:31:05;;;;;;;;;1.67;1.67;;;;;19.89;58.94;98092.44;4982297;28;101932;-72
2023/07/27 09:33:32;;;;;;;;;2.67;2.67;;;;;19.52;57.55;98082.50;4984210;28;101882;-71
2023/07/27 09:36:01;;;;;;;;;2.33;2.33;;;;;19.85;59.92;98105.88;4983257;28;101870;-72
2023/07/27 09:38:29;;;;;;;;;1.00;1.00;;;;;19.79;56.74;98081.44;5001693;27;103405;-72
2023/07/27 09:40:56;;;;;;;;;2.00;2.00;;;;;19.86;53.95;98102.00;4983983;28;101883;-73
2023/07/27 09:43:24;;;;;;;;;2.00;2.00;;;;;19.60;56.34;98111.31;4986675;28;101797;-76
2023/07/27 09:45:57;;;;;;;;;4.00;3.00;;;;;19.43;56.30;98069.56;4976658;28;101813;-73
2023/07/27 09:48:25;;;;;;;;;2.00;2.00;;;;;19.40;59.44;98073.69;4982903;28;103108;-73
2023/07/27 09:50:59;;;;;;;;;4.67;2.00;;;;;19.80;60.46;98094.06;4988672;28;101884;-73
2023/07/27 09:53:29;;;;;;;;;1.33;1.33;;;;;19.89;57.54;98078.72;4981158;28;101977;-72
2023/07/27 09:55:58;;;;;;;;;3.67;3.00;;;;;19.93;60.63;98085.28;4985497;28;101947;-72
2023/07/27 09:58:28;;;;;;;;;1.67;1.67;;;;;19.97;57.69;98083.66;4985412;28;103749;-73
2023/07/27 10:00:55;;;;;;;;;1.33;1.33;;;;;20.13;55.50;98085.28;4983265;28;101780;-71
2023/07/27 10:03:22;;;;;;;;;1.33;1.33;;;;;19.92;55.54;98086.38;4981478;28;101538;-72
2023/07/27 10:05:50;;;;;;;;;2.00;1.67;;;;;20.15;55.71;98099.56;4980758;28;101926;-73
2023/07/27 10:08:17;;;;;;;;;3.00;3.00;;;;;20.16;54.24;98087.50;4982553;28;103367;-73
2023/07/27 10:10:46;;;;;;;;;1.33;0.67;;;;;20.20;57.08;98069.38;4986565;28;102058;-72
2023/07/27 10:13:35;;;;;;;;;1.00;0.67;;;;;20.33;53.57;98073.50;4977196;28;101959;-72
2023/07/27 10:16:05;;;;;;;;;1.00;0.67;;;;;19.95;57.19;98053.72;4983886;28;101663;-72
2023/07/27 10:18:40;;;;;;;;;2.00;2.00;;;;;20.32;57.48;98089.16;4987695;28;108847;-72
2023/07/27 10:21:28;;;;;;;;;1.33;1.00;;;;;20.59;54.98;98085.25;4992339;28;101619;-73
2023/07/27 10:24:00;;;;;;;;;1.67;1.67;;;;;20.59;53.82;98086.09;4985773;28;101718;-72
2023/07/27 10:26:52;;;;;;;;;1.33;1.33;;;;;20.39;55.02;98081.47;4987512;28;102573;-73
2023/07/27 10:29:22;;;;;;;;;1.67;1.67;;;;;20.36;54.85;98064.69;4980648;28;108036;-73
2023/07/27 10:32:00;;;;;;;;;1.00;1.00;;;;;20.33;53.53;98071.59;4984510;28;101609;-73
2023/07/27 10:34:28;;;;;;;;;0.67;0.67;;;;;19.90;57.78;98028.22;4983091;28;101867;-73
2023/07/27 10:37:05;;;;;;;;;2.67;2.67;;;;;19.99;56.48;98075.97;4988102;28;101747;-72
2023/07/27 10:39:35;;;;;;;;;2.00;2.00;;;;;19.94;55.42;98068.56;4983851;28;107681;-73
2023/07/27 10:42:08;;;;;;;;;2.67;2.67;;;;;20.11;56.20;98067.47;4986429;28;102602;-72
2023/07/27 10:44:44;;;;;;;;;3.00;2.33;;;;;20.27;57.87;98055.34;4979033;28;101707;-73
2023/07/27 10:47:13;;;;;;;;;2.67;1.67;;;;;20.63;57.07;98051.47;4979170;28;101886;-73
2023/07/27 10:49:42;;;;;;;;;2.33;2.33;;;;;20.81;56.20;98066.50;4981987;28;104793;-73
2023/07/27 10:52:14;;;;;;;;;2.67;2.00;;;;;20.72;53.10;98057.19;4984570;28;101777;-73
2023/07/27 10:54:43;;;;;;;;;3.00;3.00;;;;;20.71;52.96;98050.09;4984272;28;101550;-73
2023/07/27 10:57:13;;;;;;;;;2.67;2.67;;;;;20.63;51.34;98036.91;4984502;28;102021;-72
2023/07/27 10:59:42;;;;;;;;;3.00;2.33;;;;;20.34;53.80;98042.22;4982257;28;103442;-72
2023/07/27 11:02:24;;;;;;;;;2.67;2.33;;;;;20.23;55.85;98051.50;4981881;28;101924;-72
2023/07/27 11:04:53;;;;;;;;;2.00;2.00;;;;;20.36;56.19;98040.81;4979866;28;102625;-72
2023/07/27 11:07:46;;;;;;;;;1.67;1.67;;;;;20.41;53.59;98029.00;4999710;27;101863;-72
2023/07/27 11:10:18;;;;;;;;;3.33;3.33;;;;;20.07;54.19;98031.50;4978819;28;109436;-72
2023/07/27 11:12:54;;;;;;;;;3.00;2.67;;;;;20.45;55.03;98022.66;4985707;28;101802;-72
2023/07/27 11:15:31;;;;;;;;;2.67;2.67;;;;;20.58;53.76;98031.44;4982162;28;102153;-72
2023/07/27 11:18:02;;;;;;;;;3.33;3.33;;;;;20.74;57.50;98027.53;4984944;28;101998;-72
2023/07/27 11:20:29;;;;;;;;;5.00;3.67;;;;;20.46;51.71;98029.81;4982669;28;102949;-74
2023/07/27 11:22:57;;;;;;;;;2.67;2.67;;;;;20.33;54.59;98030.41;4985480;28;101911;-72
2023/07/27 11:25:25;;;;;;;;;2.67;2.67;;;;;20.52;53.76;98018.81;4981058;28;101636;-72
2023/07/27 11:27:53;;;;;;;;;1.67;1.67;;;;;20.41;52.31;97996.88;4982518;28;101807;-73
2023/07/27 11:30:21;;;;;;;;;2.33;2.33;;;;;20.49;52.32;98001.78;4984085;28;103348;-72
2023/07/27 11:33:03;;;;;;;;;1.67;1.67;;;;;20.63;53.52;97992.94;4984270;28;102102;-72
2023/07/27 11:35:31;;;;;;;;;3.00;3.00;;;;;20.85;50.72;98009.88;4984216;28;101591;-73
2023/07/27 11:37:59;;;;;;;;;2.67;2.67;;;;;20.82;52.13;98008.53;4984605;28;104698;-72
2023/07/27 11:40:26;;;;;;;;;3.33;2.00;;;;;20.63;51.30;97999.25;4984762;28;102825;-73